Loznica, Serbia
Current Conditions -  °F | °C
As of 10:30 AM on Monday 26 Jan 2015 (Local Time) from LQTZ Reporting Station
Light Snow Light Snow  
Wind Chill: 26°   Ceiling: 700
Heat Index: 32°   Visibility: 0.93mi
Dew Point: 32°   Wind: 6mph
Humidity: 100%   Direction: 270°W
Pressure: 30.21"   Gusts: NA
Location:  44.53°N, 19.22°E
Report Text: LQTZ 260830Z 27005KT 1500 -SN BR BKN007 OVC015 00/00 Q1023
Loading
Personal Weather Stations






























Interactive Weather Map New forecast layout! Learn more

10-Day Weather Forecast

Advertisements
Track Severe Weather on mobile